Station Historical Data
Daily Summary for September 10, 2017 Units:  English    Metric   Both
« Previous Day
Next Day »
Daily Weekly Monthly Yearly Custom
  High: Low: Average:
Temperature: 67.4 °F 43.3 °F 55.5 °F
Dew Point: 51.5 °F 41.1 °F 46.5 °F
Humidity: 92% 47% 74%
Wind Speed: 8.0mph 0.0mph 1.1mph
Wind Gust: 12.0mph - -
Wind- - ESE
Pressure: 30.51 in 30.42 in -
Precipitation: 0.00 in    
Historical Graphs
 
 
Tabular Data for September 10, 2017
Time Temperature Dew Point Pressure Wind Wind Speed Wind Gust Humidity Rainfall Rate (Hourly)
00:04 49.5 °F 45.2 °F 30.42 in Calm     85% 0.00 in
00:09 49.4 °F 45.1 °F 30.42 in Calm     85% 0.00 in
00:14 49.3 °F 45.0 °F 30.42 in Calm     85% 0.00 in
00:19 49.1 °F 44.8 °F 30.42 in Calm     85% 0.00 in
00:24 48.9 °F 44.6 °F 30.42 in Calm     85% 0.00 in
00:29 48.7 °F 44.7 °F 30.42 in Calm     86% 0.00 in
00:34 48.7 °F 44.7 °F 30.42 in Calm     86% 0.00 in
00:39 48.3 °F 44.3 °F 30.42 in Calm     86% 0.00 in
00:44 48.1 °F 44.4 °F 30.43 in Calm     87% 0.00 in
00:49 48.0 °F 44.3 °F 30.43 in Calm     87% 0.00 in
00:54 47.8 °F 44.1 °F 30.43 in Calm     87% 0.00 in
00:59 47.6 °F 43.9 °F 30.43 in Calm     87% 0.00 in
01:05 47.5 °F 43.8 °F 30.43 in Calm     87% 0.00 in
01:10 47.3 °F 43.9 °F 30.44 in Calm     88% 0.00 in
01:15 47.1 °F 43.7 °F 30.44 in Calm     88% 0.00 in
01:20 47.1 °F 43.7 °F 30.44 in Calm     88% 0.00 in
01:25 46.9 °F 43.5 °F 30.44 in Calm     88% 0.00 in
01:30 47.1 °F 44.0 °F 30.43 in Calm     89% 0.00 in
01:35 47.1 °F 44.0 °F 30.43 in Calm     89% 0.00 in
01:40 46.9 °F 43.8 °F 30.43 in Calm     89% 0.00 in
01:45 46.8 °F 43.7 °F 30.43 in Calm     89% 0.00 in
01:50 46.7 °F 43.6 °F 30.43 in Calm     89% 0.00 in
01:55 46.5 °F 43.4 °F 30.43 in Calm     89% 0.00 in
02:00 46.5 °F 43.4 °F 30.43 in Calm     89% 0.00 in
02:05 46.5 °F 43.4 °F 30.43 in Calm     89% 0.00 in
02:10 46.3 °F 43.2 °F 30.43 in Calm     89% 0.00 in
02:15 46.2 °F 43.1 °F 30.43 in Calm     89% 0.00 in
02:20 46.1 °F 43.3 °F 30.43 in Calm     90% 0.00 in
02:25 46.1 °F 43.3 °F 30.43 in Calm     90% 0.00 in
02:30 45.9 °F 43.1 °F 30.43 in Calm     90% 0.00 in
02:35 45.7 °F 42.9 °F 30.43 in Calm     90% 0.00 in
02:40 45.7 °F 42.9 °F 30.43 in Calm     90% 0.00 in
02:45 45.8 °F 43.0 °F 30.43 in Calm     90% 0.00 in
02:50 45.8 °F 43.0 °F 30.43 in Calm     90% 0.00 in
02:55 45.8 °F 43.0 °F 30.43 in Calm     90% 0.00 in
03:00 45.7 °F 42.9 °F 30.43 in Calm     90% 0.00 in
03:05 45.7 °F 43.2 °F 30.43 in Calm     91% 0.00 in
03:10 45.6 °F 43.1 °F 30.43 in Calm     91% 0.00 in
03:15 45.6 °F 43.1 °F 30.43 in Calm     91% 0.00 in
03:20 45.5 °F 42.7 °F 30.43 in Calm     90% 0.00 in
03:25 45.2 °F 42.4 °F 30.43 in Calm     90% 0.00 in
03:30 44.9 °F 42.1 °F 30.43 in Calm     90% 0.00 in
03:35 44.9 °F 42.4 °F 30.43 in Calm     91% 0.00 in
03:40 44.8 °F 42.3 °F 30.43 in Calm     91% 0.00 in
03:45 44.7 °F 42.2 °F 30.44 in Calm     91% 0.00 in
03:50 44.6 °F 42.1 °F 30.44 in Calm     91% 0.00 in
03:55 44.6 °F 42.1 °F 30.44 in Calm     91% 0.00 in
04:00 44.8 °F 42.3 °F 30.44 in Calm     91% 0.00 in
04:05 44.6 °F 42.1 °F 30.44 in Calm     91% 0.00 in
04:10 44.5 °F 42.0 °F 30.44 in Calm     91% 0.00 in
04:15 44.4 °F 41.9 °F 30.44 in Calm     91% 0.00 in
04:20 44.3 °F 41.8 °F 30.44 in Calm     91% 0.00 in
04:25 44.4 °F 41.9 °F 30.44 in Calm     91% 0.00 in
04:30 44.3 °F 41.8 °F 30.44 in Calm     91% 0.00 in
04:35 44.2 °F 41.7 °F 30.44 in Calm     91% 0.00 in
04:40 44.2 °F 41.7 °F 30.44 in Calm     91% 0.00 in
04:45 44.1 °F 41.6 °F 30.44 in Calm     91% 0.00 in
04:50 44.2 °F 42.0 °F 30.44 in Calm     92% 0.00 in
04:55 44.4 °F 42.2 °F 30.44 in Calm     92% 0.00 in
05:00 44.3 °F 42.1 °F 30.44 in Calm     92% 0.00 in
05:05 44.4 °F 42.2 °F 30.45 in Calm     92% 0.00 in
05:09 44.4 °F 42.2 °F 30.45 in Calm     92% 0.00 in
05:15 44.4 °F 42.2 °F 30.45 in Calm     92% 0.00 in
05:20 44.3 °F 42.1 °F 30.45 in Calm     92% 0.00 in
05:25 44.3 °F 42.1 °F 30.45 in Calm     92% 0.00 in
05:30 44.4 °F 42.2 °F 30.45 in Calm     92% 0.00 in
05:35 44.2 °F 42.0 °F 30.45 in Calm     92% 0.00 in
05:40 44.3 °F 42.1 °F 30.45 in Calm     92% 0.00 in
05:45 44.1 °F 41.9 °F 30.45 in Calm     92% 0.00 in
05:50 44.0 °F 41.8 °F 30.45 in Calm     92% 0.00 in
05:55 43.8 °F 41.3 °F 30.46 in Calm     91% 0.00 in
06:00 43.7 °F 41.2 °F 30.46 in Calm     91% 0.00 in
06:05 43.5 °F 41.3 °F 30.46 in Calm     92% 0.00 in
06:10 43.6 °F 41.4 °F 30.46 in Calm     92% 0.00 in
06:19 43.4 °F 41.2 °F 30.46 in Calm     92% 0.00 in
06:25 43.3 °F 41.1 °F 30.46 in Calm     92% 0.00 in
06:30 43.4 °F 41.2 °F 30.46 in Calm     92% 0.00 in
06:35 43.5 °F 41.3 °F 30.47 in Calm     92% 0.00 in
06:40 43.4 °F 41.2 °F 30.47 in Calm     92% 0.00 in
06:45 43.6 °F 41.4 °F 30.47 in Calm     92% 0.00 in
06:50 43.6 °F 41.4 °F 30.48 in Calm     92% 0.00 in
06:55 43.5 °F 41.3 °F 30.48 in Calm     92% 0.00 in
07:00 43.6 °F 41.4 °F 30.48 in Calm     92% 0.00 in
07:05 43.6 °F 41.4 °F 30.48 in Calm     92% 0.00 in
07:10 43.7 °F 41.5 °F 30.48 in Calm     92% 0.00 in
07:15 43.8 °F 41.6 °F 30.48 in Calm     92% 0.00 in
07:19 43.9 °F 41.7 °F 30.48 in Calm     92% 0.00 in
07:24 44.1 °F 41.9 °F 30.48 in Calm     92% 0.00 in
07:30 44.2 °F 42.0 °F 30.48 in Calm     92% 0.00 in
07:35 44.4 °F 42.2 °F 30.49 in Calm     92% 0.00 in
07:40 44.6 °F 42.4 °F 30.49 in Calm     92% 0.00 in
07:45 44.8 °F 42.6 °F 30.49 in Calm     92% 0.00 in
07:49 45.1 °F 42.9 °F 30.49 in Calm     92% 0.00 in
07:55 45.4 °F 43.2 °F 30.49 in Calm     92% 0.00 in
08:00 45.8 °F 43.6 °F 30.49 in Calm     92% 0.00 in
08:05 46.1 °F 43.9 °F 30.49 in Calm     92% 0.00 in
08:10 46.4 °F 43.9 °F 30.49 in Calm     91% 0.00 in
08:15 46.7 °F 44.2 °F 30.49 in Calm     91% 0.00 in
08:20 47.0 °F 44.2 °F 30.49 in Calm     90% 0.00 in
08:24 47.5 °F 44.7 °F 30.49 in Calm     90% 0.00 in
08:29 48.0 °F 45.2 °F 30.49 in Calm     90% 0.00 in
08:35 48.7 °F 45.6 °F 30.49 in Calm     89% 0.00 in
08:39 49.7 °F 46.3 °F 30.50 in Calm     88% 0.00 in
08:45 50.6 °F 46.9 °F 30.50 in Calm     87% 0.00 in
08:50 50.9 °F 46.9 °F 30.50 in Calm     86% 0.00 in
08:54 51.4 °F 47.4 °F 30.50 in Calm     86% 0.00 in
09:00 51.9 °F 47.2 °F 30.50 in Calm     84% 0.00 in
09:05 52.3 °F 47.3 °F 30.50 in Calm     83% 0.00 in
09:10 52.7 °F 47.7 °F 30.50 in Calm     83% 0.00 in
09:15 53.0 °F 47.7 °F 30.50 in Calm     82% 0.00 in
09:20 54.0 °F 48.6 °F 30.51 in Calm     82% 0.00 in
09:24 54.2 °F 48.5 °F 30.51 in Calm     81% 0.00 in
09:29 54.1 °F 48.1 °F 30.51 in Calm     80% 0.00 in
09:35 54.6 °F 49.2 °F 30.51 in Calm     82% 0.00 in
09:40 55.3 °F 48.9 °F 30.51 in Calm     79% 0.00 in
09:45 55.2 °F 48.8 °F 30.51 in Calm     79% 0.00 in
09:50 56.4 °F 50.0 °F 30.51 in Calm     79% 0.00 in
10:00 58.3 °F 50.0 °F 30.51 in Calm     74% 0.00 in
10:05 58.6 °F 50.3 °F 30.51 in Calm   4.0 mph 74% 0.00 in
10:09 59.1 °F 50.1 °F 30.51 in ENE 2.0 mph 3.0 mph 72% 0.00 in
10:14 59.6 °F 50.6 °F 30.51 in NNE 2.0 mph 3.0 mph 72% 0.00 in
10:19 60.2 °F 50.4 °F 30.51 in Calm   3.0 mph 70% 0.00 in
10:25 60.7 °F 50.1 °F 30.51 in Calm   7.0 mph 68% 0.00 in
10:29 61.1 °F 50.8 °F 30.51 in ENE 2.0 mph 7.0 mph 69% 0.00 in
10:35 61.5 °F 51.2 °F 30.51 in NE 4.0 mph 7.0 mph 69% 0.00 in
10:39 61.9 °F 50.8 °F 30.51 in ENE 3.0 mph 7.0 mph 67% 0.00 in
10:45 62.1 °F 51.0 °F 30.51 in ENE 3.0 mph 6.0 mph 67% 0.00 in
10:50 62.5 °F 50.2 °F 30.51 in NNW 5.0 mph 7.0 mph 64% 0.00 in
10:55 62.8 °F 50.9 °F 30.50 in NNW 2.0 mph 5.0 mph 65% 0.00 in
10:59 63.0 °F 49.3 °F 30.50 in NNW 2.0 mph 6.0 mph 61% 0.00 in
11:05 62.9 °F 51.0 °F 30.50 in ENE 1.0 mph 7.0 mph 65% 0.00 in
11:10 63.6 °F 49.0 °F 30.51 in NNE 2.0 mph 7.0 mph 59% 0.00 in
11:15 63.6 °F 49.0 °F 30.50 in NNW 2.0 mph 6.0 mph 59% 0.00 in
11:19 63.9 °F 48.8 °F 30.51 in NNW 4.0 mph 6.0 mph 58% 0.00 in
11:24 63.9 °F 50.6 °F 30.50 in NE 2.0 mph 7.0 mph 62% 0.00 in
11:29 63.7 °F 48.2 °F 30.50 in NNE 3.0 mph 8.0 mph 57% 0.00 in
11:34 64.9 °F 49.8 °F 30.50 in North 2.0 mph 8.0 mph 58% 0.00 in
11:39 64.0 °F 48.5 °F 30.50 in NNW 2.0 mph 6.0 mph 57% 0.00 in
11:44 64.5 °F 49.8 °F 30.50 in NNW 5.0 mph 7.0 mph 59% 0.00 in
11:50 64.6 °F 49.5 °F 30.50 in Calm   8.0 mph 58% 0.00 in
11:55 63.1 °F 47.6 °F 30.50 in North 3.0 mph 8.0 mph 57% 0.00 in
12:00 63.5 °F 48.9 °F 30.50 in ENE 2.0 mph 9.0 mph 59% 0.00 in
12:04 64.5 °F 49.4 °F 30.50 in NNE 3.0 mph 9.0 mph 58% 0.00 in
12:10 65.0 °F 49.4 °F 30.50 in North 3.0 mph 8.0 mph 57% 0.00 in
12:15 63.5 °F 47.5 °F 30.50 in North 3.0 mph 7.0 mph 56% 0.00 in
12:20 63.3 °F 48.7 °F 30.50 in NNW 4.0 mph 8.0 mph 59% 0.00 in
12:24 64.2 °F 49.1 °F 30.50 in North 3.0 mph 6.0 mph 58% 0.00 in
12:29 65.3 °F 49.2 °F 30.49 in West 2.0 mph 6.0 mph 56% 0.00 in
12:34 64.3 °F 48.7 °F 30.49 in North 2.0 mph 6.0 mph 57% 0.00 in
12:40 63.7 °F 48.6 °F 30.49 in ESE 2.0 mph 5.0 mph 58% 0.00 in
12:44 64.8 °F 49.2 °F 30.49 in Calm   5.0 mph 57% 0.00 in
12:49 63.6 °F 49.0 °F 30.49 in NW 5.0 mph 8.0 mph 59% 0.00 in
12:54 63.4 °F 49.3 °F 30.49 in NNW 1.0 mph 5.0 mph 60% 0.00 in
12:59 64.8 °F 50.1 °F 30.48 in NNE 3.0 mph 7.0 mph 59% 0.00 in
13:04 66.0 °F 50.8 °F 30.49 in NNW 3.0 mph 7.0 mph 58% 0.00 in
13:09 64.6 °F 49.5 °F 30.49 in North 3.0 mph 6.0 mph 58% 0.00 in
13:15 65.6 °F 51.3 °F 30.48 in North 2.0 mph 5.0 mph 60% 0.00 in
13:19 65.5 °F 49.9 °F 30.48 in North 2.0 mph 5.0 mph 57% 0.00 in
13:25 64.2 °F 48.2 °F 30.49 in NNE 2.0 mph 5.0 mph 56% 0.00 in
13:30 63.6 °F 49.0 °F 30.48 in ENE 1.0 mph 4.0 mph 59% 0.00 in
13:35 65.2 °F 50.0 °F 30.48 in NE 3.0 mph 7.0 mph 58% 0.00 in
13:39 65.9 °F 48.8 °F 30.48 in ENE 4.0 mph 7.0 mph 54% 0.00 in
13:40 65.9 °F 48.8 °F 30.48 in NNE 3.0 mph 7.0 mph 54% 0.00 in
13:44 65.7 °F 49.1 °F 30.48 in East 1.0 mph 7.0 mph 55% 0.00 in
13:49 66.4 °F 50.2 °F 30.48 in NW 2.0 mph 7.0 mph 56% 0.00 in
13:54 66.2 °F 48.0 °F 30.48 in ENE 3.0 mph 6.0 mph 52% 0.00 in
13:59 65.3 °F 48.2 °F 30.48 in East 2.0 mph 9.0 mph 54% 0.00 in
14:05 66.3 °F 50.1 °F 30.48 in NNW 5.0 mph 9.0 mph 56% 0.00 in
14:09 66.0 °F 49.8 °F 30.47 in NNE 3.0 mph 9.0 mph 56% 0.00 in
14:14 66.2 °F 49.1 °F 30.47 in NNW 3.0 mph 8.0 mph 54% 0.00 in
14:19 66.4 °F 48.7 °F 30.47 in NW 3.0 mph 8.0 mph 53% 0.00 in
14:24 66.8 °F 50.6 °F 30.47 in North 2.0 mph 8.0 mph 56% 0.00 in
14:29 66.6 °F 48.4 °F 30.47 in NE 3.0 mph 11.0 mph 52% 0.00 in
14:34 66.2 °F 49.1 °F 30.46 in NNE 2.0 mph 10.0 mph 54% 0.00 in
14:39 66.1 °F 47.4 °F 30.46 in NE 2.0 mph 9.0 mph 51% 0.00 in
14:44 66.4 °F 49.2 °F 30.46 in ENE 4.0 mph 9.0 mph 54% 0.00 in
14:49 66.5 °F 48.3 °F 30.46 in ENE 5.0 mph 7.0 mph 52% 0.00 in
14:55 66.8 °F 49.1 °F 30.45 in ENE 4.0 mph 12.0 mph 53% 0.00 in
15:00 66.8 °F 51.5 °F 30.45 in NNW 2.0 mph 5.0 mph 58% 0.00 in
15:04 67.2 °F 50.5 °F 30.45 in NNE 2.0 mph 5.0 mph 55% 0.00 in
15:09 67.1 °F 47.8 °F 30.45 in NNW 1.0 mph 5.0 mph 50% 0.00 in
15:14 67.3 °F 48.5 °F 30.45 in North 2.0 mph 7.0 mph 51% 0.00 in
15:19 67.2 °F 48.5 °F 30.44 in North 2.0 mph 7.0 mph 51% 0.00 in
15:24 67.3 °F 48.0 °F 30.44 in NNW 2.0 mph 8.0 mph 50% 0.00 in
15:29 67.0 °F 47.7 °F 30.44 in NNE 3.0 mph 11.0 mph 50% 0.00 in
15:35 66.9 °F 49.7 °F 30.44 in ENE 4.0 mph 11.0 mph 54% 0.00 in
15:39 67.2 °F 48.5 °F 30.44 in NNE 2.0 mph 10.0 mph 51% 0.00 in
15:44 67.2 °F 49.0 °F 30.44 in NNE 3.0 mph 6.0 mph 52% 0.00 in
15:49 67.1 °F 47.3 °F 30.44 in NE 2.0 mph 6.0 mph 49% 0.00 in
15:54 67.1 °F 46.2 °F 30.44 in ENE 2.0 mph 7.0 mph 47% 0.00 in
15:59 67.4 °F 48.1 °F 30.44 in NE 2.0 mph 7.0 mph 50% 0.00 in
16:05 67.1 °F 47.8 °F 30.44 in NE 3.0 mph 7.0 mph 50% 0.00 in
16:09 67.1 °F 47.3 °F 30.44 in ENE 4.0 mph 7.0 mph 49% 0.00 in
16:14 66.3 °F 46.6 °F 30.44 in ENE 2.0 mph 8.0 mph 49% 0.00 in
16:19 66.3 °F 47.1 °F 30.44 in NE 3.0 mph 8.0 mph 50% 0.00 in
16:24 66.4 °F 46.7 °F 30.43 in NE 2.0 mph 7.0 mph 49% 0.00 in
16:29 66.7 °F 48.5 °F 30.44 in NE 3.0 mph 7.0 mph 52% 0.00 in
16:34 66.7 °F 49.0 °F 30.44 in ENE 4.0 mph 8.0 mph 53% 0.00 in
16:39 66.4 °F 48.7 °F 30.44 in NNE 2.0 mph 8.0 mph 53% 0.00 in
16:44 66.4 °F 48.2 °F 30.44 in ENE 8.0 mph 9.0 mph 52% 0.00 in
16:49 66.2 °F 48.6 °F 30.43 in West 4.0 mph 9.0 mph 53% 0.00 in
16:54 66.0 °F 47.3 °F 30.43 in NNE 3.0 mph 9.0 mph 51% 0.00 in
16:59 66.3 °F 47.6 °F 30.43 in ENE 1.0 mph 8.0 mph 51% 0.00 in
17:04 66.3 °F 47.1 °F 30.43 in NE 4.0 mph 6.0 mph 50% 0.00 in
17:09 66.3 °F 48.1 °F 30.43 in NNE 5.0 mph 7.0 mph 52% 0.00 in
17:14 66.1 °F 48.0 °F 30.43 in NE 5.0 mph 9.0 mph 52% 0.00 in
17:19 65.8 °F 48.2 °F 30.43 in NE 2.0 mph 7.0 mph 53% 0.00 in
17:24 65.9 °F 47.8 °F 30.43 in NE 2.0 mph 7.0 mph 52% 0.00 in
17:29 66.1 °F 48.5 °F 30.42 in NE 2.0 mph 6.0 mph 53% 0.00 in
17:34 65.9 °F 47.3 °F 30.42 in ENE 2.0 mph 6.0 mph 51% 0.00 in
17:39 66.1 °F 48.0 °F 30.42 in ENE 2.0 mph 6.0 mph 52% 0.00 in
17:44 65.8 °F 48.7 °F 30.42 in ENE 2.0 mph 7.0 mph 54% 0.00 in
17:50 65.7 °F 49.1 °F 30.42 in East 5.0 mph 7.0 mph 55% 0.00 in
17:54 65.1 °F 48.5 °F 30.42 in East 3.0 mph 7.0 mph 55% 0.00 in
17:59 65.0 °F 49.4 °F 30.42 in NE 5.0 mph 5.0 mph 57% 0.00 in
18:04 64.7 °F 49.1 °F 30.42 in NE 3.0 mph 9.0 mph 57% 0.00 in
18:09 64.3 °F 48.7 °F 30.42 in ENE 3.0 mph 5.0 mph 57% 0.00 in
18:14 64.1 °F 49.5 °F 30.42 in North 4.0 mph 5.0 mph 59% 0.00 in
18:19 64.0 °F 48.9 °F 30.42 in NE 2.0 mph 7.0 mph 58% 0.00 in
18:24 64.2 °F 49.1 °F 30.42 in NE 3.0 mph 8.0 mph 58% 0.00 in
18:29 64.1 °F 49.0 °F 30.42 in ENE 3.0 mph 8.0 mph 58% 0.00 in
18:34 63.8 °F 49.2 °F 30.42 in ENE 2.0 mph 8.0 mph 59% 0.00 in
18:39 63.5 °F 48.9 °F 30.42 in NE 1.0 mph 4.0 mph 59% 0.00 in
18:44 63.3 °F 48.7 °F 30.42 in NE 2.0 mph 4.0 mph 59% 0.00 in
18:49 62.9 °F 49.2 °F 30.42 in NE 2.0 mph 4.0 mph 61% 0.00 in
18:55 62.8 °F 49.6 °F 30.42 in NE 1.0 mph 4.0 mph 62% 0.00 in
18:59 62.3 °F 49.1 °F 30.42 in Calm   4.0 mph 62% 0.00 in
19:04 62.0 °F 49.3 °F 30.42 in NE 3.0 mph 5.0 mph 63% 0.00 in
19:09 61.8 °F 49.5 °F 30.42 in Calm   3.0 mph 64% 0.00 in
19:14 61.5 °F 49.6 °F 30.42 in NE 2.0 mph 3.0 mph 65% 0.00 in
19:19 61.3 °F 49.4 °F 30.42 in NE 3.0 mph 3.0 mph 65% 0.00 in
19:24 61.1 °F 49.2 °F 30.42 in NE 2.0 mph 3.0 mph 65% 0.00 in
19:29 60.8 °F 49.4 °F 30.42 in NE 2.0 mph 5.0 mph 66% 0.00 in
19:34 60.4 °F 49.0 °F 30.43 in NE 2.0 mph 5.0 mph 66% 0.00 in
19:39 60.2 °F 49.2 °F 30.42 in NE 1.0 mph 3.0 mph 67% 0.00 in
19:44 59.9 °F 48.9 °F 30.42 in NE 1.0 mph 3.0 mph 67% 0.00 in
19:49 59.6 °F 49.0 °F 30.43 in Calm   2.0 mph 68% 0.00 in
19:54 59.3 °F 48.7 °F 30.42 in Calm   2.0 mph 68% 0.00 in
20:00 59.3 °F 48.7 °F 30.42 in Calm   3.0 mph 68% 0.00 in
20:09 58.9 °F 48.4 °F 30.43 in Calm   4.0 mph 68% 0.00 in
20:14 58.6 °F 48.5 °F 30.43 in Calm   2.0 mph 69% 0.00 in
20:19 58.4 °F 48.3 °F 30.43 in Calm   3.0 mph 69% 0.00 in
20:24 58.2 °F 48.1 °F 30.43 in Calm   3.0 mph 69% 0.00 in
20:29 58.0 °F 48.3 °F 30.43 in Calm     70% 0.00 in
20:34 57.9 °F 48.2 °F 30.43 in Calm   2.0 mph 70% 0.00 in
20:39 57.6 °F 47.9 °F 30.43 in Calm   2.0 mph 70% 0.00 in
20:44 57.5 °F 48.2 °F 30.43 in Calm     71% 0.00 in
20:49 57.3 °F 48.0 °F 30.43 in Calm     71% 0.00 in
20:54 57.0 °F 47.7 °F 30.43 in Calm     71% 0.00 in
21:00 56.6 °F 47.7 °F 30.43 in Calm     72% 0.00 in
21:05 56.4 °F 47.9 °F 30.43 in Calm     73% 0.00 in
21:09 56.5 °F 47.9 °F 30.43 in Calm     73% 0.00 in
21:14 56.5 °F 47.9 °F 30.43 in Calm     73% 0.00 in
21:19 56.3 °F 47.8 °F 30.43 in Calm     73% 0.00 in
21:24 56.0 °F 47.5 °F 30.43 in Calm     73% 0.00 in
21:29 56.0 °F 47.5 °F 30.43 in Calm     73% 0.00 in
21:34 55.9 °F 47.7 °F 30.43 in Calm     74% 0.00 in
21:39 55.7 °F 47.5 °F 30.43 in Calm     74% 0.00 in
21:44 55.3 °F 47.5 °F 30.43 in Calm     75% 0.00 in
21:49 55.1 °F 47.3 °F 30.43 in Calm     75% 0.00 in
21:54 54.9 °F 47.1 °F 30.43 in Calm     75% 0.00 in
21:59 54.8 °F 47.0 °F 30.44 in Calm     75% 0.00 in
22:04 54.8 °F 47.4 °F 30.43 in Calm     76% 0.00 in
22:09 54.9 °F 47.5 °F 30.43 in Calm     76% 0.00 in
22:14 54.8 °F 47.4 °F 30.43 in Calm     76% 0.00 in
22:19 54.6 °F 47.2 °F 30.43 in Calm     76% 0.00 in
22:24 54.4 °F 47.3 °F 30.44 in Calm     77% 0.00 in
22:29 54.1 °F 47.4 °F 30.44 in Calm     78% 0.00 in
22:34 53.8 °F 47.1 °F 30.44 in Calm     78% 0.00 in
22:39 53.8 °F 47.1 °F 30.44 in Calm   3.0 mph 78% 0.00 in
22:44 53.7 °F 47.0 °F 30.44 in Calm   3.0 mph 78% 0.00 in
22:49 53.3 °F 46.6 °F 30.44 in Calm     78% 0.00 in
22:54 52.9 °F 46.6 °F 30.44 in Calm     79% 0.00 in
22:59 52.5 °F 46.5 °F 30.44 in Calm     80% 0.00 in
23:04 52.1 °F 46.4 °F 30.44 in Calm     81% 0.00 in
23:09 51.9 °F 46.6 °F 30.44 in Calm     82% 0.00 in
23:24 51.3 °F 46.3 °F 30.44 in Calm     83% 0.00 in
23:29 51.8 °F 46.8 °F 30.44 in Calm     83% 0.00 in
23:34 51.9 °F 46.6 °F 30.44 in Calm     82% 0.00 in
23:39 51.5 °F 46.2 °F 30.44 in Calm     82% 0.00 in
23:49 51.4 °F 46.4 °F 30.44 in Calm     83% 0.00 in
23:54 51.3 °F 46.3 °F 30.44 in Calm     83% 0.00 in
23:59 51.0 °F 46.0 °F 30.44 in Calm     83% 0.00 in
Buffalo, New York, USA
Compliments of Weather Underground - 2.5 mb